createdAt,value
2023-04-22T00:03:03.232Z,29.9
2023-04-22T00:08:56.562Z,29.1
2023-04-22T00:14:48.041Z,28.6
2023-04-22T00:20:40.879Z,28
2023-04-22T00:26:32.600Z,27.4
2023-04-22T00:32:24.581Z,28.9
2023-04-22T00:38:17.011Z,32.1
2023-04-22T00:43:52.923Z,30.1
2023-04-22T00:49:45.488Z,29.3
2023-04-22T00:55:36.913Z,28.8
2023-04-22T01:01:13.257Z,28.2
2023-04-22T01:06:51.161Z,27.6
2023-04-22T01:12:28.318Z,27.1
2023-04-22T01:18:23.518Z,30.7
2023-04-22T01:24:14.741Z,31.1
2023-04-22T01:30:06.112Z,29.7
2023-04-22T01:35:58.678Z,29.1
2023-04-22T01:41:50.237Z,28.5
2023-04-22T01:47:42.000Z,27.9
2023-04-22T01:53:18.484Z,27.4
2023-04-22T01:58:54.837Z,27.6
2023-04-22T02:04:47.657Z,32.3
2023-04-22T02:10:40.357Z,30.3
2023-04-22T02:16:31.078Z,29.4
2023-04-22T02:22:23.836Z,28.8
2023-04-22T02:28:14.987Z,28.3
2023-04-22T02:34:06.430Z,27.7
2023-04-22T02:39:58.512Z,27.2
2023-04-22T02:45:49.430Z,30.9
2023-04-22T02:51:25.401Z,31.1
2023-04-22T02:57:17.436Z,29.8
2023-04-22T03:03:13.903Z,29.1
2023-04-22T03:09:05.471Z,28.6
2023-04-22T03:14:57.837Z,28
2023-04-22T03:20:50.194Z,27.4
2023-04-22T03:26:41.422Z,26.7
2023-04-22T03:32:33.529Z,31.9
2023-04-22T03:38:27.731Z,30.4
2023-04-22T03:44:20.780Z,29.4
2023-04-22T03:50:15.307Z,28.9
2023-04-22T03:56:07.053Z,28.3
2023-04-22T04:01:43.139Z,27.8
2023-04-22T04:07:41.172Z,27.3
2023-04-22T04:13:32.677Z,30.1
2023-04-22T04:19:24.959Z,31.6
2023-04-22T04:25:19.089Z,29.9
2023-04-22T04:30:55.180Z,25.8
2023-04-22T04:36:47.558Z,25
2023-04-22T04:42:24.309Z,24.8
2023-04-22T04:48:17.779Z,24.4
2023-04-22T04:54:08.640Z,24.2
2023-04-22T05:00:00.356Z,30.9
2023-04-22T05:05:54.207Z,30.9
2023-04-22T05:11:45.897Z,29.6
2023-04-22T05:17:37.711Z,28.9
2023-04-22T05:23:29.149Z,28.4
2023-04-22T05:34:57.558Z,27.3
2023-04-22T05:40:49.801Z,31.2
2023-04-22T05:46:43.088Z,31.1
2023-04-22T05:52:35.667Z,30
2023-04-22T05:58:26.786Z,29.3
2023-04-22T06:04:20.768Z,28.8
2023-04-22T06:10:04.388Z,28.2
2023-04-22T06:15:56.383Z,27.6
2023-04-22T06:21:50.423Z,28.3
2023-04-22T06:27:27.134Z,32.5
2023-04-22T06:33:19.040Z,30.7
2023-04-22T06:39:10.136Z,29.9
2023-04-22T06:45:01.830Z,29.3
2023-04-22T06:50:53.617Z,28.8
2023-04-22T06:56:47.901Z,28.1
2023-04-22T07:02:25.267Z,27.5
2023-04-22T07:08:18.118Z,29
2023-04-22T07:13:54.256Z,32.4
2023-04-22T07:19:46.506Z,30.7
2023-04-22T07:25:38.679Z,29.8
2023-04-22T07:31:29.648Z,29.3
2023-04-22T07:37:06.328Z,28.6
2023-04-22T07:42:58.092Z,28.1
2023-04-22T07:48:50.033Z,29.6
2023-04-22T07:54:44.480Z,32.3
2023-04-22T08:00:20.874Z,30.4
2023-04-22T08:06:16.332Z,29.6
2023-04-22T08:12:24.811Z,29.1
2023-04-22T08:18:16.919Z,28.5
2023-04-22T08:24:07.929Z,27.9
2023-04-22T08:30:00.001Z,32.8
2023-04-22T08:35:41.111Z,31.1
2023-04-22T08:41:36.414Z,30.1
2023-04-22T08:47:34.300Z,29.4
2023-04-22T08:53:26.204Z,28.8
2023-04-22T08:59:02.471Z,28.2
2023-04-22T09:04:55.746Z,30.2
2023-04-22T09:10:34.072Z,32.3
2023-04-22T09:16:25.198Z,30.3
2023-04-22T09:22:17.252Z,29.6
2023-04-22T09:28:08.812Z,29
2023-04-22T09:34:00.893Z,28.4
2023-04-22T09:40:01.654Z,26.8
2023-04-22T09:45:53.712Z,33
2023-04-22T09:51:45.286Z,30.7
2023-04-22T09:57:36.647Z,29.8
2023-04-22T10:03:28.292Z,29.1
2023-04-22T10:09:19.290Z,28.5
2023-04-22T10:15:20.596Z,27.9
2023-04-22T10:20:56.903Z,27.3
2023-04-22T10:26:47.729Z,26.8
2023-04-22T10:32:27.011Z,26.3
2023-04-22T10:38:21.424Z,25.8
2023-04-22T10:44:13.458Z,25.4
2023-04-22T10:49:50.445Z,25.1
2023-04-22T10:55:41.895Z,24.7
2023-04-22T11:01:52.503Z,24.4
2023-04-22T11:07:14.279Z,24.2
2023-04-22T11:13:05.600Z,23.9
2023-04-22T11:18:58.041Z,23.7
2023-04-22T11:24:52.517Z,23.5
2023-04-22T11:30:44.877Z,23.3
2023-04-22T11:36:21.751Z,23.2
2023-04-22T11:42:42.759Z,23
2023-04-22T11:48:35.238Z,22.9
2023-04-22T11:54:26.596Z,22.8
2023-04-22T12:00:03.083Z,22.8
2023-04-22T12:05:57.457Z,22.6
2023-04-22T12:11:48.807Z,22.6
2023-04-22T12:17:43.388Z,22.5
2023-04-22T12:23:34.895Z,22.4
2023-04-22T12:29:28.227Z,22.3
2023-04-22T12:35:20.245Z,22.3
2023-04-22T12:41:12.134Z,22.2
2023-04-22T12:47:04.670Z,22.2
2023-04-22T12:52:57.017Z,22.1
2023-04-22T12:58:48.642Z,22.1
2023-04-22T13:04:42.349Z,22.1
2023-04-22T13:10:45.711Z,22
2023-04-22T13:16:50.830Z,22
2023-04-22T13:22:45.161Z,21.9
2023-04-22T13:28:21.619Z,21.9
2023-04-22T13:34:17.317Z,21.9
2023-04-22T13:40:09.184Z,21.9
2023-04-22T13:46:01.347Z,21.8
2023-04-22T13:51:54.150Z,21.8
2023-04-22T13:57:46.158Z,21.8
2023-04-22T14:03:23.427Z,21.8
2023-04-22T14:09:00.958Z,21.8
2023-04-22T14:14:37.387Z,21.8
2023-04-22T14:20:15.975Z,21.7
2023-04-22T14:26:09.167Z,21.7
2023-04-22T14:32:00.521Z,21.7
2023-04-22T14:37:56.007Z,21.6
2023-04-22T14:43:49.838Z,21.6
2023-04-22T14:49:42.049Z,21.6
2023-04-22T14:55:41.625Z,21.6
2023-04-22T15:01:34.898Z,21.6
2023-04-22T15:07:26.346Z,21.6
2023-04-22T15:13:18.061Z,21.6
2023-04-22T15:19:09.946Z,21.6
2023-04-22T15:25:03.674Z,21.6
2023-04-22T15:30:55.424Z,21.5
2023-04-22T15:36:48.715Z,21.5
2023-04-22T15:42:40.331Z,21.5
2023-04-22T15:48:33.569Z,21.5
2023-04-22T15:54:09.434Z,21.5
2023-04-22T16:00:09.868Z,21.5
2023-04-22T16:06:16.178Z,21.5
2023-04-22T16:12:08.170Z,21.4
2023-04-22T16:17:59.425Z,21.4
2023-04-22T16:23:50.866Z,21.4
2023-04-22T16:29:42.463Z,21.4
2023-04-22T16:35:18.086Z,21.4
2023-04-22T16:40:54.104Z,21.4
2023-04-22T16:46:30.464Z,21.4
2023-04-22T16:52:21.608Z,21.4
2023-04-22T16:58:12.977Z,21.4
2023-04-22T17:04:07.644Z,21.4
2023-04-22T17:09:59.541Z,21.4
2023-04-22T17:15:51.198Z,21.4
2023-04-22T17:21:42.746Z,21.4
2023-04-22T17:27:33.668Z,21.3
2023-04-22T17:33:09.434Z,21.3
2023-04-22T17:39:02.759Z,21.3
2023-04-22T17:45:07.048Z,21.3
2023-04-22T17:50:58.715Z,21.3
2023-04-22T17:56:50.101Z,21.3
2023-04-22T18:02:42.194Z,21.3
2023-04-22T18:08:34.354Z,21.3
2023-04-22T18:14:26.596Z,21.3
2023-04-22T18:20:14.302Z,21.2
2023-04-22T18:26:23.135Z,21.3
2023-04-22T18:32:14.790Z,21.2
2023-04-22T18:37:50.832Z,21.2
2023-04-22T18:43:41.680Z,21.2
2023-04-22T18:49:18.083Z,21.2
2023-04-22T18:55:08.635Z,21.2
2023-04-22T19:06:24.312Z,21.2
2023-04-22T19:34:57.959Z,21.1
2023-04-22T19:46:11.993Z,21.1
2023-04-22T19:52:03.987Z,21.1
2023-04-22T19:57:55.064Z,21.1
2023-04-22T20:03:48.738Z,21.1
2023-04-22T20:09:40.950Z,21.1
2023-04-22T20:15:32.203Z,21
2023-04-22T20:21:24.443Z,21
2023-04-22T20:27:16.617Z,21
2023-04-22T20:33:08.517Z,21
2023-04-22T20:39:00.013Z,21
2023-04-22T20:44:51.052Z,21
2023-04-22T20:50:46.472Z,21
2023-04-22T20:56:49.804Z,27.3
2023-04-22T21:02:41.285Z,32.5
2023-04-22T21:08:34.776Z,31.3
2023-04-22T21:14:26.304Z,29.8
2023-04-22T21:20:19.446Z,29.2
2023-04-22T21:26:11.393Z,27.3
2023-04-22T21:32:14.344Z,32.3
2023-04-22T21:38:08.641Z,31
2023-04-22T21:44:00.291Z,29.7
2023-04-22T21:49:36.108Z,29.1
2023-04-22T21:55:27.387Z,28.5
2023-04-22T22:01:03.641Z,26.8
2023-04-22T22:06:43.738Z,32.1
2023-04-22T22:12:46.593Z,30.9
2023-04-22T22:18:40.067Z,29.6
2023-04-22T22:24:31.426Z,29
2023-04-22T22:30:23.610Z,28.4
2023-04-22T22:36:15.801Z,27.9
2023-04-22T22:42:07.748Z,29.9
2023-04-22T22:48:00.725Z,32
2023-04-22T22:53:52.535Z,29.9
2023-04-22T22:59:43.643Z,29.2
2023-04-22T23:05:37.961Z,28.6
2023-04-22T23:11:14.119Z,28.1
2023-04-22T23:17:05.365Z,27.6
2023-04-22T23:22:56.984Z,29.7
2023-04-22T23:28:48.220Z,32
2023-04-22T23:34:39.186Z,29.9
2023-04-22T23:40:31.175Z,29.2
2023-04-22T23:46:22.962Z,28.6
2023-04-22T23:51:59.531Z,28.1
2023-04-22T23:57:51.553Z,27.6
